Time;durP1;ratioP1;P1;durP2;ratioP2;P2;SDS_P1;SDS_P2;PMS_P1;PMS_P2;Temp;Humidity;BMP_temperature;BMP_pressure;BME280_temperature;BME280_humidity;BME280_pressure;Samples;Min_cycle;Max_cycle;Signal;HPM_P1;HPM_P2
2021/12/27 00:02:08;;;;;;;22.10;10.65;;;1.10;97.20;;;;;;5049946;28;20477;-85
2021/12/27 00:04:34;;;;;;;21.45;10.63;;;1.00;97.30;;;;;;5032642;28;20049;-85
2021/12/27 00:06:59;;;;;;;35.25;11.63;;;0.90;97.30;;;;;;5049402;28;20089;-85
2021/12/27 00:09:25;;;;;;;27.67;11.20;;;1.00;97.30;;;;;;5016520;28;20081;-85
2021/12/27 00:11:51;;;;;;;25.00;11.27;;;0.90;97.30;;;;;;5016576;28;20052;-85
2021/12/27 00:14:19;;;;;;;23.38;11.05;;;0.90;97.50;;;;;;5032886;28;20473;-84
2021/12/27 00:16:44;;;;;;;27.02;12.10;;;0.90;97.40;;;;;;5033164;28;20057;-85
2021/12/27 00:19:10;;;;;;;25.10;11.80;;;1.00;97.40;;;;;;5050232;28;20368;-85
2021/12/27 00:21:36;;;;;;;23.48;11.70;;;0.80;97.50;;;;;;5016289;28;20104;-85
2021/12/27 00:24:02;;;;;;;21.15;10.93;;;0.70;97.50;;;;;;5032369;28;20057;-85
2021/12/27 00:26:28;;;;;;;20.58;10.38;;;0.70;97.50;;;;;;5049301;28;20125;-85
2021/12/27 00:28:53;;;;;;;23.65;11.13;;;0.80;97.50;;;;;;5032757;28;20103;-85
2021/12/27 00:31:19;;;;;;;23.75;11.55;;;0.80;97.50;;;;;;5050264;28;20042;-85
2021/12/27 00:33:45;;;;;;;27.60;11.70;;;0.80;97.40;;;;;;5033150;28;20045;-85
2021/12/27 00:36:11;;;;;;;23.38;11.55;;;0.80;97.40;;;;;;5050180;28;20120;-85
2021/12/27 00:38:36;;;;;;;24.75;10.80;;;0.80;97.40;;;;;;5032512;28;20485;-85
2021/12/27 00:41:02;;;;;;;25.90;12.93;;;0.80;97.50;;;;;;5049212;28;20136;-85
2021/12/27 00:43:28;;;;;;;20.25;10.10;;;0.70;97.40;;;;;;5049832;28;20128;-85
2021/12/27 00:45:54;;;;;;;22.38;11.00;;;0.60;97.60;;;;;;5050162;28;20045;-85
2021/12/27 00:48:19;;;;;;;24.10;12.02;;;0.60;97.40;;;;;;5001223;28;20049;-85
2021/12/27 00:50:45;;;;;;;22.42;10.88;;;0.60;97.40;;;;;;5049764;28;20072;-85
2021/12/27 00:53:11;;;;;;;24.10;11.90;;;0.70;97.50;;;;;;5061713;28;20057;-85
2021/12/27 00:55:37;;;;;;;25.27;12.02;;;0.60;97.50;;;;;;5064204;28;20057;-86
2021/12/27 00:58:03;;;;;;;23.05;10.90;;;0.60;97.50;;;;;;5045583;28;20046;-86
2021/12/27 01:00:28;;;;;;;26.00;11.20;;;0.70;97.50;;;;;;5005304;28;20045;-85
2021/12/27 01:02:55;;;;;;;25.48;11.07;;;0.70;97.40;;;;;;5036949;28;20056;-85
2021/12/27 01:05:22;;;;;;;25.38;11.15;;;0.80;97.40;;;;;;5019424;28;20045;-85
2021/12/27 01:07:48;;;;;;;26.27;12.30;;;0.90;97.40;;;;;;5053203;28;20481;-85
2021/12/27 01:16:10;;;;;;;22.67;11.13;;;0.90;97.50;;;;;;4995782;28;20042;-85
2021/12/27 01:18:43;;;;;;;24.40;10.98;;;0.90;97.40;;;;;;5031408;28;20053;-85
2021/12/27 01:21:09;;;;;;;28.83;11.93;;;0.70;97.50;;;;;;5052716;28;20134;-85
2021/12/27 01:23:35;;;;;;;21.88;10.70;;;0.80;97.60;;;;;;5035649;28;20477;-85
2021/12/27 01:26:01;;;;;;;23.95;10.85;;;0.80;97.60;;;;;;5035905;28;20145;-85
2021/12/27 01:28:27;;;;;;;24.73;11.13;;;0.70;97.60;;;;;;5035484;28;20081;-85
2021/12/27 01:30:53;;;;;;;24.50;11.55;;;0.60;97.80;;;;;;5019146;28;20045;-85
2021/12/27 01:33:20;;;;;;;22.50;11.15;;;0.70;97.70;;;;;;5052357;28;20053;-85
2021/12/27 01:35:47;;;;;;;27.58;12.73;;;0.70;97.70;;;;;;5018984;28;20059;-85
2021/12/27 01:38:14;;;;;;;22.80;11.65;;;0.80;97.70;;;;;;5036478;28;20453;-85
2021/12/27 01:40:43;;;;;;;29.55;12.25;;;0.70;97.60;;;;;;5035812;28;20072;-85
2021/12/27 01:43:13;;;;;;;22.50;11.57;;;0.60;97.80;;;;;;5035341;28;20048;-85
2021/12/27 01:45:42;;;;;;;26.10;11.95;;;0.60;97.90;;;;;;5035020;28;20107;-85
2021/12/27 01:48:08;;;;;;;24.67;11.70;;;0.80;97.80;;;;;;5035828;28;20088;-85
2021/12/27 01:50:40;;;;;;;24.95;11.20;;;0.70;97.80;;;;;;5018564;28;20057;-85
2021/12/27 01:53:06;;;;;;;23.73;11.65;;;0.60;97.80;;;;;;5052534;28;20064;-85
2021/12/27 01:55:33;;;;;;;24.60;11.82;;;0.70;97.90;;;;;;5052810;28;20061;-85
2021/12/27 01:57:59;;;;;;;24.17;11.32;;;0.80;97.90;;;;;;5019553;28;20072;-85
2021/12/27 02:00:25;;;;;;;25.10;12.30;;;0.70;97.80;;;;;;5003885;28;20050;-85
2021/12/27 02:02:51;;;;;;;23.70;11.45;;;0.80;97.90;;;;;;5035655;28;20053;-85
2021/12/27 02:05:17;;;;;;;23.10;11.23;;;0.80;97.80;;;;;;5051743;28;20053;-84
2021/12/27 02:07:43;;;;;;;29.23;11.80;;;0.80;97.80;;;;;;5035478;28;20049;-84
2021/12/27 02:10:11;;;;;;;24.10;12.15;;;0.80;97.80;;;;;;5035868;28;20111;-84
2021/12/27 02:12:37;;;;;;;28.95;13.30;;;0.80;97.90;;;;;;5034621;28;20042;-84
2021/12/27 02:15:07;;;;;;;28.33;12.23;;;0.80;97.90;;;;;;5034776;28;20132;-84
2021/12/27 02:17:34;;;;;;;29.85;12.57;;;0.90;97.90;;;;;;5019762;28;20117;-84
2021/12/27 02:20:00;;;;;;;27.63;13.40;;;0.90;97.90;;;;;;5035590;28;20049;-84
2021/12/27 02:22:28;;;;;;;27.35;12.90;;;0.80;97.80;;;;;;5052181;28;20045;-84
2021/12/27 02:24:54;;;;;;;29.80;13.05;;;0.70;98.00;;;;;;5051767;28;20052;-85
2021/12/27 02:27:20;;;;;;;38.58;13.48;;;0.80;98.00;;;;;;5034355;28;20488;-85
2021/12/27 02:29:46;;;;;;;28.95;13.15;;;0.80;98.00;;;;;;5034891;28;20049;-85
2021/12/27 02:32:12;;;;;;;29.52;13.95;;;0.90;97.90;;;;;;5003880;28;20045;-84
2021/12/27 02:34:37;;;;;;;25.05;12.30;;;0.90;97.90;;;;;;5034075;28;20034;-85
2021/12/27 02:37:03;;;;;;;27.90;12.63;;;0.80;98.00;;;;;;5018256;28;20045;-84
2021/12/27 02:39:30;;;;;;;26.50;11.90;;;1.00;98.10;;;;;;5023364;28;20091;-84
2021/12/27 02:41:56;;;;;;;27.70;13.93;;;0.80;98.00;;;;;;5072987;28;20089;-83
2021/12/27 02:44:22;;;;;;;30.13;13.45;;;0.90;98.00;;;;;;5051005;28;20049;-85
2021/12/27 02:46:47;;;;;;;29.13;13.65;;;1.00;98.00;;;;;;5051304;28;20107;-85
2021/12/27 02:49:13;;;;;;;27.27;13.15;;;1.00;98.00;;;;;;5034656;28;20056;-85
2021/12/27 02:51:39;;;;;;;26.60;12.90;;;1.00;97.90;;;;;;5033553;28;20615;-85
2021/12/27 02:54:04;;;;;;;34.55;14.63;;;1.10;98.00;;;;;;5001438;28;20057;-85
2021/12/27 02:56:31;;;;;;;30.38;13.48;;;1.10;97.90;;;;;;5017681;28;20099;-84
2021/12/27 02:58:57;;;;;;;32.00;12.40;;;1.00;98.00;;;;;;5050560;28;20053;-85
2021/12/27 03:01:28;;;;;;;27.80;13.75;;;1.20;98.00;;;;;;5034115;28;20492;-85
2021/12/27 03:03:54;;;;;;;31.33;14.65;;;1.00;98.00;;;;;;5034402;28;20098;-85
2021/12/27 03:06:20;;;;;;;29.10;13.05;;;1.10;98.10;;;;;;5033504;28;20092;-84
2021/12/27 03:08:48;;;;;;;30.65;14.05;;;1.00;98.10;;;;;;5016892;28;20037;-84
2021/12/27 03:11:14;;;;;;;31.15;13.73;;;1.10;98.10;;;;;;5050246;28;20500;-84
2021/12/27 03:13:44;;;;;;;27.58;13.50;;;1.10;98.10;;;;;;5033846;28;20076;-85
2021/12/27 03:16:13;;;;;;;30.05;13.68;;;1.10;98.10;;;;;;5050645;28;20053;-84
2021/12/27 03:18:42;;;;;;;30.13;14.35;;;1.10;98.10;;;;;;5033654;28;20052;-84
2021/12/27 03:21:08;;;;;;;28.73;12.63;;;1.00;98.10;;;;;;5033918;28;20081;-84
2021/12/27 03:23:35;;;;;;;29.83;14.27;;;1.00;98.20;;;;;;5032886;28;20048;-84
2021/12/27 03:26:02;;;;;;;30.77;14.50;;;1.00;98.10;;;;;;5033854;28;20049;-84
2021/12/27 03:28:28;;;;;;;31.88;13.27;;;1.30;98.30;;;;;;5034108;28;20079;-85
2021/12/27 03:30:54;;;;;;;27.25;13.23;;;1.20;98.20;;;;;;5016898;28;20052;-85
2021/12/27 03:33:22;;;;;;;28.48;13.50;;;1.20;98.10;;;;;;5001192;28;20049;-85
2021/12/27 03:35:59;;;;;;;34.70;13.48;;;1.10;98.20;;;;;;5016444;28;20050;-84
2021/12/27 03:38:26;;;;;;;30.30;13.60;;;1.20;98.30;;;;;;5033741;28;20046;-85
2021/12/27 03:40:52;;;;;;;30.10;14.10;;;1.30;98.20;;;;;;5033348;28;20053;-84
2021/12/27 03:43:18;;;;;;;27.27;13.85;;;1.30;98.10;;;;;;5016977;28;20041;-84
2021/12/27 03:45:44;;;;;;;33.17;14.85;;;1.10;98.10;;;;;;5016639;28;20452;-85
2021/12/27 03:48:10;;;;;;;31.42;14.40;;;1.10;98.30;;;;;;5033493;28;20037;-84
2021/12/27 03:50:36;;;;;;;30.77;15.65;;;1.20;98.30;;;;;;5049243;28;20045;-85
2021/12/27 03:53:03;;;;;;;29.75;13.63;;;1.10;98.30;;;;;;5016222;28;20045;-84
2021/12/27 03:55:29;;;;;;;25.05;12.32;;;1.20;98.40;;;;;;5016986;28;20371;-85
2021/12/27 03:58:05;;;;;;;31.30;14.40;;;1.30;98.40;;;;;;5033704;28;20048;-83
2021/12/27 04:00:46;;;;;;;31.98;14.23;;;1.40;98.30;;;;;;5034317;28;20041;-84
2021/12/27 04:03:12;;;;;;;33.10;14.68;;;1.60;98.20;;;;;;5033469;28;20123;-84
2021/12/27 04:05:37;;;;;;;28.58;13.43;;;1.40;98.20;;;;;;5016671;28;20493;-84
2021/12/27 04:08:09;;;;;;;32.08;14.60;;;1.40;98.20;;;;;;5016938;28;20053;-84
2021/12/27 04:10:37;;;;;;;35.45;16.83;;;1.50;98.20;;;;;;5002119;28;20084;-84
2021/12/27 04:13:03;;;;;;;30.25;14.23;;;1.60;98.20;;;;;;5033634;28;20064;-85
2021/12/27 04:15:29;;;;;;;31.27;16.67;;;1.50;98.30;;;;;;5034998;28;20527;-85
2021/12/27 04:17:54;;;;;;;33.35;15.13;;;1.60;98.30;;;;;;5055855;28;20093;-83
2021/12/27 04:20:22;;;;;;;29.73;14.32;;;1.60;98.20;;;;;;5038366;28;20052;-84
2021/12/27 04:22:48;;;;;;;32.70;14.77;;;1.60;98.20;;;;;;5036431;28;20053;-83
2021/12/27 04:25:15;;;;;;;30.90;14.05;;;1.50;98.30;;;;;;5036035;28;20128;-83
2021/12/27 04:27:41;;;;;;;33.75;15.18;;;1.60;98.40;;;;;;5033488;28;20459;-83
2021/12/27 04:30:07;;;;;;;32.97;14.93;;;1.60;98.40;;;;;;5049878;28;20092;-83
2021/12/27 04:32:33;;;;;;;33.17;15.50;;;1.60;98.40;;;;;;5016686;28;20053;-84
2021/12/27 04:34:59;;;;;;;33.72;16.20;;;1.60;98.50;;;;;;5017054;28;20499;-83
2021/12/27 04:37:25;;;;;;;31.08;15.40;;;1.60;98.60;;;;;;5053719;28;20071;-83
2021/12/27 04:39:50;;;;;;;27.58;14.30;;;1.50;98.60;;;;;;5020501;28;20060;-83
2021/12/27 04:42:16;;;;;;;34.72;15.90;;;1.50;98.70;;;;;;5020180;28;20068;-83
2021/12/27 04:44:42;;;;;;;32.75;16.00;;;1.50;98.70;;;;;;5036931;28;20038;-83
2021/12/27 04:47:08;;;;;;;31.60;15.02;;;1.50;98.70;;;;;;5036872;28;20136;-83
2021/12/27 04:49:34;;;;;;;30.77;13.98;;;1.40;98.80;;;;;;5019776;28;20084;-83
2021/12/27 04:52:00;;;;;;;32.65;14.07;;;1.50;98.80;;;;;;5036531;28;20095;-83
2021/12/27 04:54:25;;;;;;;33.67;14.98;;;1.60;98.70;;;;;;5020130;28;20049;-84
2021/12/27 04:56:51;;;;;;;29.05;14.13;;;1.80;98.70;;;;;;5052757;28;20045;-84
2021/12/27 04:59:17;;;;;;;33.58;15.90;;;1.70;98.60;;;;;;5020007;28;20503;-83
2021/12/27 05:01:42;;;;;;;29.20;14.57;;;1.60;98.70;;;;;;5053095;28;20046;-84
2021/12/27 05:04:08;;;;;;;34.08;15.73;;;1.70;98.60;;;;;;5003166;28;20057;-86
2021/12/27 05:06:34;;;;;;;31.40;16.17;;;1.80;98.60;;;;;;5053502;28;20392;-85
2021/12/27 05:09:03;;;;;;;31.88;16.40;;;1.80;98.60;;;;;;5053591;28;20049;-84
2021/12/27 05:11:30;;;;;;;33.58;15.20;;;1.80;98.60;;;;;;5053114;28;20084;-85
2021/12/27 05:13:55;;;;;;;33.42;15.45;;;1.80;98.60;;;;;;5019963;28;20071;-84
2021/12/27 05:16:21;;;;;;;30.83;15.50;;;1.60;98.70;;;;;;5036400;28;20106;-84
2021/12/27 05:18:47;;;;;;;30.50;15.40;;;1.60;98.90;;;;;;5036310;28;20046;-84
2021/12/27 05:21:12;;;;;;;32.85;15.02;;;1.50;98.90;;;;;;5019568;28;20115;-84
2021/12/27 05:23:38;;;;;;;33.55;15.65;;;1.60;99.10;;;;;;5019815;28;20052;-84
2021/12/27 05:26:04;;;;;;;36.88;16.60;;;1.60;99.10;;;;;;5036603;28;20130;-83
2021/12/27 05:28:30;;;;;;;33.42;15.18;;;1.50;98.90;;;;;;5036008;28;20052;-84
2021/12/27 05:30:56;;;;;;;38.15;17.63;;;1.50;99.00;;;;;;5018828;28;20088;-84
2021/12/27 05:33:21;;;;;;;35.80;17.13;;;1.50;99.10;;;;;;5002812;28;20049;-84
2021/12/27 05:35:47;;;;;;;32.65;16.33;;;1.50;99.30;;;;;;5034984;28;20049;-84
2021/12/27 05:38:14;;;;;;;33.00;15.43;;;1.50;99.20;;;;;;5035213;28;20053;-84
2021/12/27 05:40:40;;;;;;;33.58;15.80;;;1.50;99.20;;;;;;5051886;28;20053;-84
2021/12/27 05:43:06;;;;;;;31.52;15.48;;;1.60;99.20;;;;;;5051714;28;20057;-84
2021/12/27 05:45:36;;;;;;;34.85;17.00;;;1.70;99.10;;;;;;5035109;28;20103;-85
2021/12/27 05:48:04;;;;;;;35.53;16.88;;;1.80;99.00;;;;;;5034347;28;20524;-85
2021/12/27 05:50:31;;;;;;;35.13;17.13;;;1.90;99.10;;;;;;5034478;28;20489;-84
2021/12/27 05:52:57;;;;;;;42.05;18.70;;;1.90;99.20;;;;;;5018509;28;20056;-84
2021/12/27 05:55:24;;;;;;;39.28;19.05;;;1.80;99.30;;;;;;5018277;28;20088;-84
2021/12/27 05:57:50;;;;;;;39.28;17.85;;;1.80;99.40;;;;;;5035032;28;20103;-84
2021/12/27 06:00:16;;;;;;;34.25;17.83;;;1.70;99.70;;;;;;5034887;28;20123;-84
2021/12/27 06:02:43;;;;;;;41.50;19.63;;;1.70;99.90;;;;;;5035043;28;20083;-84
2021/12/27 06:05:10;;;;;;;39.60;18.55;;;1.90;99.80;;;;;;5017973;28;20106;-84
2021/12/27 06:07:36;;;;;;;45.13;19.38;;;2.00;99.60;;;;;;5051317;28;20053;-84
2021/12/27 06:10:03;;;;;;;43.30;20.13;;;1.90;99.60;;;;;;5051399;28;20100;-84
2021/12/27 06:12:29;;;;;;;34.97;17.17;;;1.80;99.50;;;;;;5018067;28;20083;-85
2021/12/27 06:14:54;;;;;;;37.65;17.67;;;1.90;99.70;;;;;;5052328;28;20081;-84
2021/12/27 06:17:20;;;;;;;37.80;18.20;;;1.70;99.80;;;;;;5019076;28;20049;-84
2021/12/27 06:19:46;;;;;;;39.83;19.27;;;1.70;99.90;;;;;;5035499;28;20128;-84
2021/12/27 06:22:11;;;;;;;36.92;17.10;;;1.90;99.90;;;;;;5052489;28;20045;-84
2021/12/27 06:24:37;;;;;;;39.72;18.30;;;1.80;99.90;;;;;;5035518;28;20053;-84
2021/12/27 06:27:03;;;;;;;43.05;19.63;;;1.70;99.90;;;;;;5019151;28;20081;-84
2021/12/27 06:29:29;;;;;;;39.58;17.23;;;1.70;99.90;;;;;;5034896;28;20388;-84
2021/12/27 06:31:54;;;;;;;43.88;19.27;;;1.70;99.90;;;;;;5032521;28;20045;-84
2021/12/27 06:34:20;;;;;;;34.53;17.48;;;1.70;99.90;;;;;;5051240;28;20038;-85
2021/12/27 06:36:47;;;;;;;47.55;22.50;;;1.70;99.90;;;;;;5035004;28;20041;-84
2021/12/27 06:39:13;;;;;;;40.08;20.13;;;1.80;99.90;;;;;;5034814;28;20581;-84
2021/12/27 06:41:39;;;;;;;45.58;20.90;;;1.70;99.90;;;;;;5018736;28;20132;-84
2021/12/27 06:44:05;;;;;;;42.10;19.30;;;1.80;99.90;;;;;;5002563;28;20124;-84
2021/12/27 06:46:31;;;;;;;43.53;19.67;;;1.70;99.90;;;;;;5051724;28;20400;-84
2021/12/27 06:48:56;;;;;;;41.80;18.52;;;1.90;99.90;;;;;;5018685;28;20397;-84
2021/12/27 06:51:22;;;;;;;43.55;19.60;;;1.60;99.90;;;;;;5034935;28;20089;-84
2021/12/27 06:53:48;;;;;;;38.90;18.75;;;1.70;99.90;;;;;;5018278;28;20048;-84
2021/12/27 06:56:14;;;;;;;44.30;20.30;;;1.70;99.90;;;;;;5051480;28;20127;-84
2021/12/27 06:58:40;;;;;;;42.90;19.08;;;1.60;99.90;;;;;;5034865;28;20069;-85
2021/12/27 07:01:06;;;;;;;44.45;20.67;;;1.70;99.90;;;;;;5018461;28;20493;-85
2021/12/27 07:03:31;;;;;;;54.83;23.15;;;1.80;99.90;;;;;;5018271;28;20543;-84
2021/12/27 07:05:57;;;;;;;50.55;22.35;;;1.80;99.90;;;;;;5017666;28;20045;-84
2021/12/27 07:08:23;;;;;;;38.40;18.58;;;1.70;99.90;;;;;;5035047;28;20045;-84
2021/12/27 07:10:50;;;;;;;43.08;19.48;;;1.70;99.90;;;;;;5034750;28;20393;-84
2021/12/27 07:13:16;;;;;;;42.65;20.00;;;1.70;99.90;;;;;;5051670;28;20041;-84
2021/12/27 07:15:42;;;;;;;42.92;18.85;;;1.70;99.90;;;;;;5018686;28;20520;-85
2021/12/27 07:18:12;;;;;;;48.75;21.00;;;1.70;99.90;;;;;;5051156;28;20049;-84
2021/12/27 07:20:38;;;;;;;42.67;20.25;;;1.80;99.90;;;;;;5034381;28;20041;-84
2021/12/27 07:23:05;;;;;;;46.30;19.58;;;1.70;99.90;;;;;;5034575;28;20459;-84
2021/12/27 07:25:31;;;;;;;45.13;19.85;;;1.70;99.90;;;;;;5051214;28;20053;-84
2021/12/27 07:27:57;;;;;;;45.97;20.45;;;1.60;99.90;;;;;;5051129;28;20429;-84
2021/12/27 07:30:23;;;;;;;43.00;19.95;;;1.70;99.90;;;;;;5034740;28;20146;-85
2021/12/27 07:32:49;;;;;;;40.80;18.92;;;1.70;99.90;;;;;;5035428;28;20046;-84
2021/12/27 07:35:15;;;;;;;42.78;20.35;;;2.00;99.90;;;;;;5050236;28;20038;-84
2021/12/27 07:37:42;;;;;;;40.60;19.95;;;1.80;99.90;;;;;;5019667;28;20046;-84
2021/12/27 07:40:09;;;;;;;58.42;23.40;;;1.80;99.90;;;;;;5051662;28;20091;-84
2021/12/27 07:42:36;;;;;;;44.45;20.30;;;1.80;99.90;;;;;;5034260;28;20057;-84
2021/12/27 07:45:03;;;;;;;54.88;24.70;;;1.70;99.90;;;;;;5050412;28;20046;-84
2021/12/27 07:47:28;;;;;;;40.50;19.67;;;1.80;99.90;;;;;;5017845;28;20052;-84
2021/12/27 07:49:54;;;;;;;54.33;22.70;;;1.80;99.90;;;;;;5033949;28;20136;-84
2021/12/27 07:52:20;;;;;;;44.97;20.20;;;1.80;99.90;;;;;;5033889;28;20041;-83
2021/12/27 07:54:46;;;;;;;51.38;21.88;;;1.80;99.90;;;;;;5050965;28;20049;-84
2021/12/27 07:57:12;;;;;;;46.30;19.95;;;1.80;99.90;;;;;;5013201;28;20492;-72
2021/12/27 07:59:38;;;;;;;45.13;20.75;;;1.90;99.90;;;;;;5032490;28;20507;-72
2021/12/27 08:02:04;;;;;;;40.63;20.45;;;1.90;99.90;;;;;;5012469;28;20455;-70
2021/12/27 08:04:30;;;;;;;46.78;21.35;;;1.70;99.90;;;;;;5012328;28;20136;-72
2021/12/27 08:06:55;;;;;;;43.58;19.55;;;1.80;99.90;;;;;;5029235;28;20095;-74
2021/12/27 08:09:24;;;;;;;43.67;19.63;;;1.80;99.90;;;;;;4995858;28;20393;-72
2021/12/27 08:11:49;;;;;;;44.95;19.95;;;1.80;99.90;;;;;;5029034;28;20390;-72
2021/12/27 08:14:15;;;;;;;43.80;20.30;;;1.80;99.90;;;;;;4996161;28;20053;-74
2021/12/27 08:16:41;;;;;;;42.88;19.50;;;1.80;99.90;;;;;;5012715;28;20488;-72
2021/12/27 08:19:07;;;;;;;55.42;23.25;;;2.00;99.90;;;;;;4980101;28;20061;-72
2021/12/27 08:21:33;;;;;;;48.67;21.35;;;1.90;99.90;;;;;;5013501;28;20414;-72
2021/12/27 08:23:59;;;;;;;45.90;21.20;;;1.80;99.90;;;;;;5013808;28;20397;-71
2021/12/27 08:26:25;;;;;;;55.72;23.63;;;1.90;99.90;;;;;;5013851;28;20417;-73
2021/12/27 08:28:53;;;;;;;55.33;23.10;;;1.80;99.90;;;;;;5019174;28;20052;-73
2021/12/27 08:31:22;;;;;;;44.63;20.23;;;1.80;99.90;;;;;;5034343;28;20052;-71
2021/12/27 08:33:47;;;;;;;40.97;20.63;;;1.80;99.90;;;;;;5033031;28;20037;-73
2021/12/27 08:36:14;;;;;;;50.03;23.20;;;1.90;99.90;;;;;;5039175;28;20105;-72
2021/12/27 08:38:39;;;;;;;45.08;20.45;;;1.90;99.90;;;;;;5050124;28;20053;-72
2021/12/27 08:41:05;;;;;;;53.13;23.58;;;2.00;99.90;;;;;;5019404;28;20045;-73
2021/12/27 08:43:31;;;;;;;45.22;20.92;;;2.00;99.90;;;;;;5031767;28;20128;-72
2021/12/27 08:45:59;;;;;;;49.42;23.60;;;1.90;99.90;;;;;;5029276;28;20092;-73
2021/12/27 08:48:25;;;;;;;47.97;21.30;;;2.00;99.90;;;;;;4996369;28;20050;-73
2021/12/27 08:50:50;;;;;;;46.70;21.08;;;2.00;99.90;;;;;;5012979;28;20058;-72
2021/12/27 08:53:16;;;;;;;50.47;21.95;;;2.10;99.90;;;;;;4979952;28;20488;-73
2021/12/27 08:55:42;;;;;;;51.83;22.55;;;2.10;99.90;;;;;;5012054;28;20477;-73
2021/12/27 08:58:08;;;;;;;51.30;21.80;;;2.20;99.90;;;;;;5014463;28;20127;-73
2021/12/27 09:00:34;;;;;;;47.75;21.95;;;2.20;99.90;;;;;;5031759;28;20049;-73
2021/12/27 09:03:00;;;;;;;37.40;18.77;;;2.20;99.90;;;;;;5031857;28;20053;-73
2021/12/27 09:05:25;;;;;;;43.60;19.88;;;2.20;99.90;;;;;;5031738;28;20191;-73
2021/12/27 09:07:51;;;;;;;45.65;21.67;;;2.40;99.90;;;;;;5013254;28;20397;-75
2021/12/27 09:10:17;;;;;;;48.50;20.98;;;2.40;99.90;;;;;;5028289;28;20814;-72
2021/12/27 09:12:44;;;;;;;44.22;20.08;;;2.40;99.90;;;;;;5061759;28;20046;-73
2021/12/27 09:15:11;;;;;;;37.80;19.10;;;2.50;99.90;;;;;;5030707;28;20045;-75
2021/12/27 09:17:37;;;;;;;46.53;21.58;;;2.50;99.90;;;;;;5014966;28;20042;-72
2021/12/27 09:20:05;;;;;;;41.67;19.27;;;2.50;99.90;;;;;;5033133;28;20092;-73
2021/12/27 09:22:30;;;;;;;45.15;19.77;;;2.50;99.90;;;;;;5034663;28;20045;-73
2021/12/27 09:24:56;;;;;;;44.90;20.13;;;2.60;99.90;;;;;;5035623;28;20049;-72
2021/12/27 09:27:22;;;;;;;49.65;20.98;;;2.60;99.90;;;;;;5033048;28;20050;-72
2021/12/27 09:29:49;;;;;;;48.38;19.98;;;2.50;99.90;;;;;;5020215;28;20076;-72
2021/12/27 09:32:15;;;;;;;41.58;18.88;;;2.40;99.90;;;;;;5073826;28;20045;-72
2021/12/27 09:34:41;;;;;;;57.20;23.08;;;2.50;99.90;;;;;;5042424;28;20385;-72
2021/12/27 09:37:08;;;;;;;58.63;23.45;;;2.60;99.90;;;;;;5037644;28;20042;-72
2021/12/27 09:39:34;;;;;;;53.67;21.58;;;2.70;99.90;;;;;;5018310;28;20053;-72
2021/12/27 09:42:01;;;;;;;52.58;20.35;;;2.60;99.90;;;;;;5017246;28;20068;-74
2021/12/27 09:44:27;;;;;;;58.95;23.08;;;2.70;99.90;;;;;;5030881;28;20060;-72
2021/12/27 09:46:53;;;;;;;46.72;20.13;;;2.70;99.90;;;;;;5031447;28;20508;-73
2021/12/27 09:49:22;;;;;;;51.30;22.52;;;2.60;99.90;;;;;;5031019;28;20175;-72
2021/12/27 09:51:48;;;;;;;50.17;22.05;;;2.60;99.90;;;;;;5063575;28;20103;-74
2021/12/27 09:54:14;;;;;;;48.28;20.60;;;2.60;99.90;;;;;;5067169;28;20143;-73
2021/12/27 09:56:41;;;;;;;64.05;24.48;;;2.60;99.90;;;;;;5051606;28;20104;-73
2021/12/27 09:59:07;;;;;;;56.00;23.45;;;2.70;99.90;;;;;;5018304;28;20057;-72
2021/12/27 10:01:33;;;;;;;53.88;22.17;;;2.70;99.90;;;;;;5034540;28;20050;-73
2021/12/27 10:04:01;;;;;;;59.70;23.17;;;2.80;99.90;;;;;;5034719;28;20053;-77
2021/12/27 10:06:28;;;;;;;54.67;22.92;;;2.80;99.90;;;;;;5034440;28;20056;-74
2021/12/27 10:08:57;;;;;;;55.65;21.90;;;2.80;99.90;;;;;;5034661;28;20448;-74
2021/12/27 10:11:26;;;;;;;69.15;25.52;;;2.80;99.90;;;;;;5034714;28;20062;-74
2021/12/27 10:14:09;;;;;;;57.55;21.98;;;2.90;99.90;;;;;;5034732;28;20045;-75
2021/12/27 10:16:48;;;;;;;60.03;22.80;;;2.90;99.90;;;;;;5035575;28;20096;-75
2021/12/27 10:19:19;;;;;;;62.85;23.13;;;2.80;99.90;;;;;;5034398;28;20489;-74
2021/12/27 10:21:47;;;;;;;59.25;22.30;;;2.80;99.90;;;;;;5034928;28;20053;-74
2021/12/27 10:24:16;;;;;;;81.38;25.70;;;2.90;99.90;;;;;;5034621;28;20070;-75
2021/12/27 10:26:45;;;;;;;67.63;23.20;;;3.00;99.90;;;;;;5017840;28;20388;-75
2021/12/27 10:29:12;;;;;;;70.53;24.45;;;3.00;99.90;;;;;;5034517;28;20085;-74
2021/12/27 10:32:13;;;;;;;62.22;23.90;;;3.00;99.90;;;;;;5034293;28;20089;-75
2021/12/27 10:34:51;;;;;;;67.60;22.30;;;3.00;99.90;;;;;;5033650;28;20404;-75
2021/12/27 10:37:24;;;;;;;76.57;26.13;;;3.00;99.90;;;;;;5034433;28;20072;-75
2021/12/27 10:40:01;;;;;;;76.80;23.83;;;2.90;99.90;;;;;;5034498;28;20052;-75
2021/12/27 10:42:43;;;;;;;88.10;26.00;;;2.90;99.90;;;;;;5035578;28;20095;-75
2021/12/27 10:45:19;;;;;;;97.13;28.25;;;3.00;99.90;;;;;;5034820;28;20052;-76
2021/12/27 10:47:51;;;;;;;62.65;22.77;;;2.90;99.90;;;;;;5034195;28;20568;-75
2021/12/27 10:50:20;;;;;;;89.80;25.05;;;3.00;99.90;;;;;;5033733;28;20060;-75
2021/12/27 10:52:50;;;;;;;73.43;25.08;;;3.00;99.90;;;;;;5034061;28;20058;-75
2021/12/27 10:55:37;;;;;;;81.65;25.33;;;3.00;99.90;;;;;;5033806;28;20052;-75
2021/12/27 10:58:24;;;;;;;77.45;23.95;;;3.10;99.90;;;;;;5034077;28;20061;-76
2021/12/27 11:00:51;;;;;;;136.95;31.83;;;3.20;99.90;;;;;;5033977;28;20060;-76
2021/12/27 11:03:25;;;;;;;84.28;26.67;;;3.10;99.90;;;;;;5033900;28;20045;-76
2021/12/27 11:05:51;;;;;;;84.22;27.70;;;3.00;99.90;;;;;;5033033;28;20473;-76
2021/12/27 11:08:17;;;;;;;133.20;31.85;;;3.10;99.90;;;;;;5033291;28;20045;-74
2021/12/27 11:10:43;;;;;;;102.63;29.33;;;3.20;99.90;;;;;;5033592;28;20089;-75
2021/12/27 11:13:09;;;;;;;119.43;29.58;;;3.30;99.90;;;;;;5034167;28;20055;-76
2021/12/27 11:15:36;;;;;;;137.40;33.15;;;3.40;99.90;;;;;;5033120;28;20042;-76
2021/12/27 11:18:04;;;;;;;85.45;26.55;;;3.60;99.90;;;;;;5033426;28;20555;-76
2021/12/27 11:20:30;;;;;;;74.60;25.83;;;3.50;99.90;;;;;;5033506;28;20057;-76
2021/12/27 11:22:59;;;;;;;89.18;26.30;;;3.60;99.90;;;;;;5033320;28;20132;-76
2021/12/27 11:25:36;;;;;;;82.72;25.48;;;3.70;99.90;;;;;;5024871;28;20049;-76
2021/12/27 11:28:24;;;;;;;104.63;28.15;;;3.60;99.90;;;;;;5026848;28;20096;-76
2021/12/27 11:30:50;;;;;;;100.95;28.80;;;3.50;99.90;;;;;;5029323;28;20053;-77
2021/12/27 11:33:20;;;;;;;87.47;27.50;;;3.50;99.90;;;;;;5047496;28;20071;-76
2021/12/27 11:35:51;;;;;;;172.73;36.17;;;3.40;99.90;;;;;;5014175;28;20042;-76
2021/12/27 11:38:37;;;;;;;170.52;36.22;;;3.40;99.90;;;;;;5033003;28;20107;-73
2021/12/27 11:41:06;;;;;;;146.60;33.70;;;3.40;99.90;;;;;;5033271;28;20056;-77
2021/12/27 11:43:53;;;;;;;116.80;31.30;;;3.30;99.90;;;;;;5031935;28;20041;-77
2021/12/27 11:46:20;;;;;;;90.32;29.17;;;3.30;99.90;;;;;;5016045;28;20049;-74
2021/12/27 11:48:51;;;;;;;168.50;35.67;;;3.30;99.90;;;;;;5049159;28;20054;-75
2021/12/27 11:51:29;;;;;;;89.38;28.83;;;3.30;99.90;;;;;;5048739;28;20053;-75
2021/12/27 11:53:55;;;;;;;94.18;29.05;;;3.30;99.90;;;;;;5046775;28;20057;-77
2021/12/27 11:56:42;;;;;;;99.40;28.65;;;3.30;99.90;;;;;;5025050;28;20469;-77
2021/12/27 11:59:32;;;;;;;91.50;28.65;;;3.30;99.90;;;;;;5014118;28;20046;-75
2021/12/27 12:02:16;;;;;;;197.52;35.67;;;3.40;99.90;;;;;;5015440;28;20056;-79
2021/12/27 12:04:44;;;;;;;178.68;33.70;;;3.50;99.90;;;;;;5033282;28;20396;-78
2021/12/27 12:07:11;;;;;;;111.53;29.40;;;3.50;99.90;;;;;;5066577;28;20045;-73
2021/12/27 12:09:47;;;;;;;128.25;31.35;;;3.50;99.90;;;;;;5016491;28;20054;-76
2021/12/27 12:12:14;;;;;;;;;;;3.60;99.90;;;;;;5033134;28;20111;-75
2021/12/27 12:14:40;;;;;;;;;;;3.50;99.90;;;;;;5048927;28;19972;-78
2021/12/27 12:17:09;;;;;;;77.97;25.42;;;3.60;99.90;;;;;;5021002;28;20383;-77
2021/12/27 12:19:46;;;;;;;153.50;30.63;;;3.50;99.90;;;;;;5032047;28;20057;-78
2021/12/27 12:22:38;;;;;;;141.75;31.73;;;3.50;99.90;;;;;;5029921;28;20053;-77
2021/12/27 12:25:10;;;;;;;89.53;27.55;;;3.60;99.90;;;;;;5016410;28;20096;-76
2021/12/27 12:27:36;;;;;;;163.02;33.85;;;3.60;99.90;;;;;;5016335;28;20053;-77
2021/12/27 12:30:03;;;;;;;117.97;29.92;;;3.60;99.90;;;;;;5032740;28;20042;-74
2021/12/27 12:32:28;;;;;;;125.05;30.77;;;3.60;99.90;;;;;;5002722;28;20466;-74
2021/12/27 12:34:54;;;;;;;233.93;38.38;;;3.60;99.90;;;;;;5013146;28;20077;-75
2021/12/27 12:37:20;;;;;;;120.63;30.25;;;3.50;99.90;;;;;;5014654;28;20056;-74
2021/12/27 12:39:50;;;;;;;107.55;31.25;;;3.50;99.90;;;;;;5015836;28;20052;-75
2021/12/27 12:42:21;;;;;;;241.40;40.17;;;3.40;99.90;;;;;;5032284;28;20056;-75
2021/12/27 12:44:56;;;;;;;234.77;39.20;;;3.50;99.90;;;;;;5016009;28;20053;-75